<?xml version="1.0" encoding="UTF-8" standalone="no" ?>
<gpx xmlns="http://www.topografix.com/GPX/1/1" xmlns:xsi="http://www.w3.org/2001/XMLSchema-instance" xsi:schemaLocation="http://www.topografix.com/GPX/1/1 http://www.topografix.com/GPX/1/1/gpx.xsd" version="1.1" creator="VisuGPX - https://www.visugpx.com">
  <metadata>
    <name>Maussane les Alpilles</name>
    <desc><![CDATA[Départ à partir du parking d'Agora]]></desc>
  </metadata>
  <trk>
    <name><![CDATA[Maussane les Alpilles]]></name>
    <trkseg>
      <trkpt lat="43.72293" lon="4.80492">
        <ele>88</ele>
        <time>2021-12-04T09:36:37+01:00</time>
      </trkpt>
      <trkpt lat="43.72306" lon="4.80466">
        <ele>78</ele>
        <time>2021-12-04T09:41:44+01:00</time>
      </trkpt>
      <trkpt lat="43.72328" lon="4.80464">
        <ele>83</ele>
        <time>2021-12-04T09:42:13+01:00</time>
      </trkpt>
      <trkpt lat="43.72351" lon="4.8047">
        <ele>84</ele>
        <time>2021-12-04T09:42:34+01:00</time>
      </trkpt>
      <trkpt lat="43.72361" lon="4.80441">
        <ele>85</ele>
        <time>2021-12-04T09:43:09+01:00</time>
      </trkpt>
      <trkpt lat="43.72378" lon="4.80422">
        <ele>82</ele>
        <time>2021-12-04T09:45:37+01:00</time>
      </trkpt>
      <trkpt lat="43.72384" lon="4.80392">
        <ele>83</ele>
        <time>2021-12-04T09:46:01+01:00</time>
      </trkpt>
      <trkpt lat="43.72389" lon="4.80361">
        <ele>84</ele>
        <time>2021-12-04T09:46:21+01:00</time>
      </trkpt>
      <trkpt lat="43.72411" lon="4.80356">
        <ele>87</ele>
        <time>2021-12-04T09:46:59+01:00</time>
      </trkpt>
      <trkpt lat="43.72431" lon="4.80371">
        <ele>91</ele>
        <time>2021-12-04T09:47:23+01:00</time>
      </trkpt>
      <trkpt lat="43.72452" lon="4.80383">
        <ele>93</ele>
        <time>2021-12-04T09:47:45+01:00</time>
      </trkpt>
      <trkpt lat="43.72474" lon="4.80375">
        <ele>87</ele>
        <time>2021-12-04T09:48:20+01:00</time>
      </trkpt>
      <trkpt lat="43.72479" lon="4.80343">
        <ele>79</ele>
        <time>2021-12-04T09:48:48+01:00</time>
      </trkpt>
      <trkpt lat="43.72478" lon="4.80311">
        <ele>89</ele>
        <time>2021-12-04T09:49:21+01:00</time>
      </trkpt>
      <trkpt lat="43.7249" lon="4.80284">
        <ele>86</ele>
        <time>2021-12-04T09:51:57+01:00</time>
      </trkpt>
      <trkpt lat="43.72513" lon="4.80283">
        <ele>89</ele>
        <time>2021-12-04T09:52:24+01:00</time>
      </trkpt>
      <trkpt lat="43.72535" lon="4.80279">
        <ele>91</ele>
        <time>2021-12-04T09:52:48+01:00</time>
      </trkpt>
      <trkpt lat="43.72559" lon="4.80272">
        <ele>91</ele>
        <time>2021-12-04T09:53:19+01:00</time>
      </trkpt>
      <trkpt lat="43.72582" lon="4.80268">
        <ele>93</ele>
        <time>2021-12-04T09:53:42+01:00</time>
      </trkpt>
      <trkpt lat="43.72604" lon="4.80262">
        <ele>93</ele>
        <time>2021-12-04T09:54:03+01:00</time>
      </trkpt>
      <trkpt lat="43.72627" lon="4.80267">
        <ele>95</ele>
        <time>2021-12-04T09:54:30+01:00</time>
      </trkpt>
      <trkpt lat="43.7265" lon="4.80272">
        <ele>94</ele>
        <time>2021-12-04T09:54:58+01:00</time>
      </trkpt>
      <trkpt lat="43.72672" lon="4.80273">
        <ele>97</ele>
        <time>2021-12-04T09:55:21+01:00</time>
      </trkpt>
      <trkpt lat="43.72695" lon="4.80271">
        <ele>100</ele>
        <time>2021-12-04T09:55:44+01:00</time>
      </trkpt>
      <trkpt lat="43.72719" lon="4.80264">
        <ele>99</ele>
        <time>2021-12-04T09:56:08+01:00</time>
      </trkpt>
      <trkpt lat="43.72741" lon="4.80256">
        <ele>102</ele>
        <time>2021-12-04T09:56:35+01:00</time>
      </trkpt>
      <trkpt lat="43.72764" lon="4.80258">
        <ele>106</ele>
        <time>2021-12-04T09:56:57+01:00</time>
      </trkpt>
      <trkpt lat="43.72787" lon="4.80253">
        <ele>103</ele>
        <time>2021-12-04T09:58:45+01:00</time>
      </trkpt>
      <trkpt lat="43.72809" lon="4.8025">
        <ele>106</ele>
        <time>2021-12-04T09:59:23+01:00</time>
      </trkpt>
      <trkpt lat="43.72833" lon="4.80251">
        <ele>109</ele>
        <time>2021-12-04T09:59:43+01:00</time>
      </trkpt>
      <trkpt lat="43.72856" lon="4.80256">
        <ele>110</ele>
        <time>2021-12-04T10:01:10+01:00</time>
      </trkpt>
      <trkpt lat="43.72877" lon="4.8027">
        <ele>110</ele>
        <time>2021-12-04T10:01:30+01:00</time>
      </trkpt>
      <trkpt lat="43.72879" lon="4.80301">
        <ele>99</ele>
        <time>2021-12-04T10:02:15+01:00</time>
      </trkpt>
      <trkpt lat="43.72878" lon="4.80333">
        <ele>98</ele>
        <time>2021-12-04T10:02:40+01:00</time>
      </trkpt>
      <trkpt lat="43.72872" lon="4.80363">
        <ele>100</ele>
        <time>2021-12-04T10:03:10+01:00</time>
      </trkpt>
      <trkpt lat="43.72864" lon="4.80393">
        <ele>99</ele>
        <time>2021-12-04T10:03:31+01:00</time>
      </trkpt>
      <trkpt lat="43.72885" lon="4.80405">
        <ele>104</ele>
        <time>2021-12-04T10:03:58+01:00</time>
      </trkpt>
      <trkpt lat="43.72909" lon="4.80404">
        <ele>106</ele>
        <time>2021-12-04T10:04:26+01:00</time>
      </trkpt>
      <trkpt lat="43.72932" lon="4.80404">
        <ele>107</ele>
        <time>2021-12-04T10:04:48+01:00</time>
      </trkpt>
      <trkpt lat="43.72955" lon="4.80407">
        <ele>110</ele>
        <time>2021-12-04T10:05:37+01:00</time>
      </trkpt>
      <trkpt lat="43.72977" lon="4.80401">
        <ele>114</ele>
        <time>2021-12-04T10:05:58+01:00</time>
      </trkpt>
      <trkpt lat="43.73" lon="4.80399">
        <ele>110</ele>
        <time>2021-12-04T10:06:22+01:00</time>
      </trkpt>
      <trkpt lat="43.73023" lon="4.80398">
        <ele>108</ele>
        <time>2021-12-04T10:06:43+01:00</time>
      </trkpt>
      <trkpt lat="43.73044" lon="4.80407">
        <ele>111</ele>
        <time>2021-12-04T10:07:14+01:00</time>
      </trkpt>
      <trkpt lat="43.7306" lon="4.8043">
        <ele>111</ele>
        <time>2021-12-04T10:07:37+01:00</time>
      </trkpt>
      <trkpt lat="43.7308" lon="4.80446">
        <ele>113</ele>
        <time>2021-12-04T10:08:09+01:00</time>
      </trkpt>
      <trkpt lat="43.731" lon="4.8046">
        <ele>114</ele>
        <time>2021-12-04T10:08:31+01:00</time>
      </trkpt>
      <trkpt lat="43.73118" lon="4.80479">
        <ele>109</ele>
        <time>2021-12-04T10:08:54+01:00</time>
      </trkpt>
      <trkpt lat="43.73129" lon="4.80507">
        <ele>108</ele>
        <time>2021-12-04T10:09:18+01:00</time>
      </trkpt>
      <trkpt lat="43.73134" lon="4.80538">
        <ele>110</ele>
        <time>2021-12-04T10:09:38+01:00</time>
      </trkpt>
      <trkpt lat="43.7314" lon="4.80568">
        <ele>113</ele>
        <time>2021-12-04T10:10:00+01:00</time>
      </trkpt>
      <trkpt lat="43.73148" lon="4.80598">
        <ele>111</ele>
        <time>2021-12-04T10:10:23+01:00</time>
      </trkpt>
      <trkpt lat="43.73154" lon="4.8063">
        <ele>113</ele>
        <time>2021-12-04T10:10:45+01:00</time>
      </trkpt>
      <trkpt lat="43.73167" lon="4.80657">
        <ele>113</ele>
        <time>2021-12-04T10:11:06+01:00</time>
      </trkpt>
      <trkpt lat="43.73186" lon="4.80673">
        <ele>111</ele>
        <time>2021-12-04T10:11:28+01:00</time>
      </trkpt>
      <trkpt lat="43.73186" lon="4.80704">
        <ele>114</ele>
        <time>2021-12-04T10:11:49+01:00</time>
      </trkpt>
      <trkpt lat="43.73179" lon="4.80734">
        <ele>114</ele>
        <time>2021-12-04T10:12:16+01:00</time>
      </trkpt>
      <trkpt lat="43.73192" lon="4.8076">
        <ele>119</ele>
        <time>2021-12-04T10:12:41+01:00</time>
      </trkpt>
      <trkpt lat="43.73211" lon="4.80778">
        <ele>118</ele>
        <time>2021-12-04T10:13:03+01:00</time>
      </trkpt>
      <trkpt lat="43.73231" lon="4.80793">
        <ele>119</ele>
        <time>2021-12-04T10:13:37+01:00</time>
      </trkpt>
      <trkpt lat="43.7325" lon="4.8081">
        <ele>116</ele>
        <time>2021-12-04T10:14:01+01:00</time>
      </trkpt>
      <trkpt lat="43.7327" lon="4.80826">
        <ele>117</ele>
        <time>2021-12-04T10:14:24+01:00</time>
      </trkpt>
      <trkpt lat="43.73288" lon="4.80846">
        <ele>117</ele>
        <time>2021-12-04T10:14:49+01:00</time>
      </trkpt>
      <trkpt lat="43.73307" lon="4.80863">
        <ele>117</ele>
        <time>2021-12-04T10:15:13+01:00</time>
      </trkpt>
      <trkpt lat="43.73326" lon="4.80882">
        <ele>118</ele>
        <time>2021-12-04T10:15:34+01:00</time>
      </trkpt>
      <trkpt lat="43.73345" lon="4.809">
        <ele>120</ele>
        <time>2021-12-04T10:15:55+01:00</time>
      </trkpt>
      <trkpt lat="43.73367" lon="4.8091">
        <ele>120</ele>
        <time>2021-12-04T10:16:15+01:00</time>
      </trkpt>
      <trkpt lat="43.73384" lon="4.80887">
        <ele>117</ele>
        <time>2021-12-04T10:16:42+01:00</time>
      </trkpt>
      <trkpt lat="43.73399" lon="4.80863">
        <ele>117</ele>
        <time>2021-12-04T10:17:04+01:00</time>
      </trkpt>
      <trkpt lat="43.73412" lon="4.80838">
        <ele>116</ele>
        <time>2021-12-04T10:17:28+01:00</time>
      </trkpt>
      <trkpt lat="43.7342" lon="4.80808">
        <ele>114</ele>
        <time>2021-12-04T10:17:48+01:00</time>
      </trkpt>
      <trkpt lat="43.73427" lon="4.80777">
        <ele>120</ele>
        <time>2021-12-04T10:18:08+01:00</time>
      </trkpt>
      <trkpt lat="43.73437" lon="4.80749">
        <ele>118</ele>
        <time>2021-12-04T10:18:31+01:00</time>
      </trkpt>
      <trkpt lat="43.73446" lon="4.8072">
        <ele>121</ele>
        <time>2021-12-04T10:18:52+01:00</time>
      </trkpt>
      <trkpt lat="43.73455" lon="4.8069">
        <ele>123</ele>
        <time>2021-12-04T10:19:17+01:00</time>
      </trkpt>
      <trkpt lat="43.73467" lon="4.80663">
        <ele>126</ele>
        <time>2021-12-04T10:19:40+01:00</time>
      </trkpt>
      <trkpt lat="43.7349" lon="4.8066">
        <ele>125</ele>
        <time>2021-12-04T10:20:04+01:00</time>
      </trkpt>
      <trkpt lat="43.73513" lon="4.8066">
        <ele>126</ele>
        <time>2021-12-04T10:20:28+01:00</time>
      </trkpt>
      <trkpt lat="43.73537" lon="4.80667">
        <ele>129</ele>
        <time>2021-12-04T10:21:05+01:00</time>
      </trkpt>
      <trkpt lat="43.73541" lon="4.80636">
        <ele>134</ele>
        <time>2021-12-04T10:21:35+01:00</time>
      </trkpt>
      <trkpt lat="43.73541" lon="4.80604">
        <ele>131</ele>
        <time>2021-12-04T10:22:04+01:00</time>
      </trkpt>
      <trkpt lat="43.73539" lon="4.80572">
        <ele>132</ele>
        <time>2021-12-04T10:22:29+01:00</time>
      </trkpt>
      <trkpt lat="43.73547" lon="4.80542">
        <ele>129</ele>
        <time>2021-12-04T10:22:54+01:00</time>
      </trkpt>
      <trkpt lat="43.73551" lon="4.80511">
        <ele>127</ele>
        <time>2021-12-04T10:23:17+01:00</time>
      </trkpt>
      <trkpt lat="43.73555" lon="4.80479">
        <ele>131</ele>
        <time>2021-12-04T10:23:55+01:00</time>
      </trkpt>
      <trkpt lat="43.73557" lon="4.80447">
        <ele>129</ele>
        <time>2021-12-04T10:24:14+01:00</time>
      </trkpt>
      <trkpt lat="43.73562" lon="4.80415">
        <ele>131</ele>
        <time>2021-12-04T10:24:39+01:00</time>
      </trkpt>
      <trkpt lat="43.73568" lon="4.80384">
        <ele>131</ele>
        <time>2021-12-04T10:25:04+01:00</time>
      </trkpt>
      <trkpt lat="43.73579" lon="4.80355">
        <ele>127</ele>
        <time>2021-12-04T10:25:28+01:00</time>
      </trkpt>
      <trkpt lat="43.73596" lon="4.80333">
        <ele>129</ele>
        <time>2021-12-04T10:25:52+01:00</time>
      </trkpt>
      <trkpt lat="43.73613" lon="4.80312">
        <ele>126</ele>
        <time>2021-12-04T10:26:14+01:00</time>
      </trkpt>
      <trkpt lat="43.73622" lon="4.80284">
        <ele>128</ele>
        <time>2021-12-04T10:27:06+01:00</time>
      </trkpt>
      <trkpt lat="43.73636" lon="4.80257">
        <ele>127</ele>
        <time>2021-12-04T10:27:39+01:00</time>
      </trkpt>
      <trkpt lat="43.73646" lon="4.80229">
        <ele>132</ele>
        <time>2021-12-04T10:28:04+01:00</time>
      </trkpt>
      <trkpt lat="43.73662" lon="4.80206">
        <ele>133</ele>
        <time>2021-12-04T10:28:32+01:00</time>
      </trkpt>
      <trkpt lat="43.7368" lon="4.80186">
        <ele>133</ele>
        <time>2021-12-04T10:29:00+01:00</time>
      </trkpt>
      <trkpt lat="43.73693" lon="4.80159">
        <ele>129</ele>
        <time>2021-12-04T10:29:23+01:00</time>
      </trkpt>
      <trkpt lat="43.737" lon="4.80129">
        <ele>128</ele>
        <time>2021-12-04T10:29:47+01:00</time>
      </trkpt>
      <trkpt lat="43.73722" lon="4.80121">
        <ele>128</ele>
        <time>2021-12-04T10:30:13+01:00</time>
      </trkpt>
      <trkpt lat="43.7374" lon="4.80101">
        <ele>130</ele>
        <time>2021-12-04T10:30:34+01:00</time>
      </trkpt>
      <trkpt lat="43.73746" lon="4.80071">
        <ele>132</ele>
        <time>2021-12-04T10:30:59+01:00</time>
      </trkpt>
      <trkpt lat="43.73744" lon="4.80039">
        <ele>131</ele>
        <time>2021-12-04T10:31:28+01:00</time>
      </trkpt>
      <trkpt lat="43.73739" lon="4.80009">
        <ele>136</ele>
        <time>2021-12-04T10:31:50+01:00</time>
      </trkpt>
      <trkpt lat="43.73742" lon="4.79977">
        <ele>135</ele>
        <time>2021-12-04T10:32:17+01:00</time>
      </trkpt>
      <trkpt lat="43.73751" lon="4.79949">
        <ele>137</ele>
        <time>2021-12-04T10:32:42+01:00</time>
      </trkpt>
      <trkpt lat="43.73762" lon="4.7992">
        <ele>141</ele>
        <time>2021-12-04T10:33:05+01:00</time>
      </trkpt>
      <trkpt lat="43.73769" lon="4.7989">
        <ele>139</ele>
        <time>2021-12-04T10:33:28+01:00</time>
      </trkpt>
      <trkpt lat="43.73782" lon="4.79863">
        <ele>138</ele>
        <time>2021-12-04T10:33:50+01:00</time>
      </trkpt>
      <trkpt lat="43.73794" lon="4.79837">
        <ele>139</ele>
        <time>2021-12-04T10:34:11+01:00</time>
      </trkpt>
      <trkpt lat="43.73804" lon="4.79809">
        <ele>138</ele>
        <time>2021-12-04T10:34:32+01:00</time>
      </trkpt>
      <trkpt lat="43.73811" lon="4.79779">
        <ele>142</ele>
        <time>2021-12-04T10:34:56+01:00</time>
      </trkpt>
      <trkpt lat="43.73822" lon="4.79749">
        <ele>141</ele>
        <time>2021-12-04T10:35:19+01:00</time>
      </trkpt>
      <trkpt lat="43.73832" lon="4.79721">
        <ele>147</ele>
        <time>2021-12-04T10:35:57+01:00</time>
      </trkpt>
      <trkpt lat="43.73841" lon="4.79692">
        <ele>144</ele>
        <time>2021-12-04T10:37:13+01:00</time>
      </trkpt>
      <trkpt lat="43.73849" lon="4.79662">
        <ele>146</ele>
        <time>2021-12-04T10:37:37+01:00</time>
      </trkpt>
      <trkpt lat="43.73858" lon="4.79633">
        <ele>142</ele>
        <time>2021-12-04T10:37:59+01:00</time>
      </trkpt>
      <trkpt lat="43.73865" lon="4.79602">
        <ele>149</ele>
        <time>2021-12-04T10:38:19+01:00</time>
      </trkpt>
      <trkpt lat="43.73873" lon="4.79572">
        <ele>153</ele>
        <time>2021-12-04T10:38:39+01:00</time>
      </trkpt>
      <trkpt lat="43.73881" lon="4.79543">
        <ele>150</ele>
        <time>2021-12-04T10:39:01+01:00</time>
      </trkpt>
      <trkpt lat="43.73889" lon="4.79512">
        <ele>151</ele>
        <time>2021-12-04T10:39:28+01:00</time>
      </trkpt>
      <trkpt lat="43.73895" lon="4.79482">
        <ele>155</ele>
        <time>2021-12-04T10:39:51+01:00</time>
      </trkpt>
      <trkpt lat="43.73899" lon="4.7945">
        <ele>157</ele>
        <time>2021-12-04T10:40:50+01:00</time>
      </trkpt>
      <trkpt lat="43.73899" lon="4.79418">
        <ele>158</ele>
        <time>2021-12-04T10:41:41+01:00</time>
      </trkpt>
      <trkpt lat="43.73906" lon="4.79388">
        <ele>156</ele>
        <time>2021-12-04T10:42:17+01:00</time>
      </trkpt>
      <trkpt lat="43.7391" lon="4.79356">
        <ele>162</ele>
        <time>2021-12-04T10:43:11+01:00</time>
      </trkpt>
      <trkpt lat="43.73909" lon="4.79325">
        <ele>162</ele>
        <time>2021-12-04T10:44:07+01:00</time>
      </trkpt>
      <trkpt lat="43.73924" lon="4.7935">
        <ele>166</ele>
        <time>2021-12-04T10:45:28+01:00</time>
      </trkpt>
      <trkpt lat="43.73926" lon="4.79381">
        <ele>168</ele>
        <time>2021-12-04T10:45:51+01:00</time>
      </trkpt>
      <trkpt lat="43.73923" lon="4.79412">
        <ele>167</ele>
        <time>2021-12-04T10:46:13+01:00</time>
      </trkpt>
      <trkpt lat="43.73921" lon="4.79443">
        <ele>166</ele>
        <time>2021-12-04T10:46:35+01:00</time>
      </trkpt>
      <trkpt lat="43.73932" lon="4.79471">
        <ele>167</ele>
        <time>2021-12-04T10:46:59+01:00</time>
      </trkpt>
      <trkpt lat="43.73944" lon="4.79498">
        <ele>165</ele>
        <time>2021-12-04T10:47:21+01:00</time>
      </trkpt>
      <trkpt lat="43.73952" lon="4.79528">
        <ele>167</ele>
        <time>2021-12-04T10:47:44+01:00</time>
      </trkpt>
      <trkpt lat="43.73966" lon="4.79554">
        <ele>169</ele>
        <time>2021-12-04T10:48:10+01:00</time>
      </trkpt>
      <trkpt lat="43.73965" lon="4.79586">
        <ele>169</ele>
        <time>2021-12-04T10:48:37+01:00</time>
      </trkpt>
      <trkpt lat="43.73987" lon="4.79597">
        <ele>169</ele>
        <time>2021-12-04T10:49:15+01:00</time>
      </trkpt>
      <trkpt lat="43.73979" lon="4.79567">
        <ele>171</ele>
        <time>2021-12-04T10:51:28+01:00</time>
      </trkpt>
      <trkpt lat="43.73979" lon="4.79535">
        <ele>172</ele>
        <time>2021-12-04T10:51:52+01:00</time>
      </trkpt>
      <trkpt lat="43.73977" lon="4.79504">
        <ele>179</ele>
        <time>2021-12-04T10:52:20+01:00</time>
      </trkpt>
      <trkpt lat="43.7398" lon="4.79473">
        <ele>181</ele>
        <time>2021-12-04T10:52:58+01:00</time>
      </trkpt>
      <trkpt lat="43.73999" lon="4.79454">
        <ele>178</ele>
        <time>2021-12-04T10:53:26+01:00</time>
      </trkpt>
      <trkpt lat="43.74021" lon="4.7945">
        <ele>185</ele>
        <time>2021-12-04T10:54:01+01:00</time>
      </trkpt>
      <trkpt lat="43.74043" lon="4.79459">
        <ele>186</ele>
        <time>2021-12-04T10:54:35+01:00</time>
      </trkpt>
      <trkpt lat="43.74062" lon="4.79474">
        <ele>188</ele>
        <time>2021-12-04T10:55:21+01:00</time>
      </trkpt>
      <trkpt lat="43.74082" lon="4.7949">
        <ele>193</ele>
        <time>2021-12-04T10:55:52+01:00</time>
      </trkpt>
      <trkpt lat="43.74101" lon="4.79508">
        <ele>194</ele>
        <time>2021-12-04T10:56:22+01:00</time>
      </trkpt>
      <trkpt lat="43.74117" lon="4.7953">
        <ele>199</ele>
        <time>2021-12-04T10:56:57+01:00</time>
      </trkpt>
      <trkpt lat="43.74131" lon="4.79555">
        <ele>203</ele>
        <time>2021-12-04T10:57:28+01:00</time>
      </trkpt>
      <trkpt lat="43.7415" lon="4.79573">
        <ele>203</ele>
        <time>2021-12-04T10:58:02+01:00</time>
      </trkpt>
      <trkpt lat="43.74166" lon="4.79595">
        <ele>203</ele>
        <time>2021-12-04T11:08:46+01:00</time>
      </trkpt>
      <trkpt lat="43.74186" lon="4.79611">
        <ele>203</ele>
        <time>2021-12-04T11:09:17+01:00</time>
      </trkpt>
      <trkpt lat="43.74207" lon="4.79624">
        <ele>203</ele>
        <time>2021-12-04T11:09:39+01:00</time>
      </trkpt>
      <trkpt lat="43.74229" lon="4.79633">
        <ele>204</ele>
        <time>2021-12-04T11:10:02+01:00</time>
      </trkpt>
      <trkpt lat="43.7425" lon="4.79645">
        <ele>209</ele>
        <time>2021-12-04T11:10:25+01:00</time>
      </trkpt>
      <trkpt lat="43.74268" lon="4.79664">
        <ele>212</ele>
        <time>2021-12-04T11:10:49+01:00</time>
      </trkpt>
      <trkpt lat="43.74287" lon="4.79683">
        <ele>211</ele>
        <time>2021-12-04T11:11:15+01:00</time>
      </trkpt>
      <trkpt lat="43.74303" lon="4.79707">
        <ele>212</ele>
        <time>2021-12-04T11:11:38+01:00</time>
      </trkpt>
      <trkpt lat="43.74322" lon="4.79724">
        <ele>217</ele>
        <time>2021-12-04T11:12:02+01:00</time>
      </trkpt>
      <trkpt lat="43.74344" lon="4.79734">
        <ele>220</ele>
        <time>2021-12-04T11:12:27+01:00</time>
      </trkpt>
      <trkpt lat="43.74357" lon="4.79759">
        <ele>221</ele>
        <time>2021-12-04T11:12:53+01:00</time>
      </trkpt>
      <trkpt lat="43.74373" lon="4.79783">
        <ele>220</ele>
        <time>2021-12-04T11:13:16+01:00</time>
      </trkpt>
      <trkpt lat="43.74393" lon="4.79798">
        <ele>221</ele>
        <time>2021-12-04T11:13:40+01:00</time>
      </trkpt>
      <trkpt lat="43.74416" lon="4.79804">
        <ele>220</ele>
        <time>2021-12-04T11:14:06+01:00</time>
      </trkpt>
      <trkpt lat="43.74439" lon="4.79797">
        <ele>217</ele>
        <time>2021-12-04T11:14:33+01:00</time>
      </trkpt>
      <trkpt lat="43.74462" lon="4.79794">
        <ele>221</ele>
        <time>2021-12-04T11:15:05+01:00</time>
      </trkpt>
      <trkpt lat="43.74484" lon="4.79798">
        <ele>221</ele>
        <time>2021-12-04T11:15:30+01:00</time>
      </trkpt>
      <trkpt lat="43.74507" lon="4.79803">
        <ele>223</ele>
        <time>2021-12-04T11:16:02+01:00</time>
      </trkpt>
      <trkpt lat="43.74525" lon="4.79783">
        <ele>226</ele>
        <time>2021-12-04T11:16:32+01:00</time>
      </trkpt>
      <trkpt lat="43.74535" lon="4.79755">
        <ele>229</ele>
        <time>2021-12-04T11:17:06+01:00</time>
      </trkpt>
      <trkpt lat="43.7455" lon="4.79731">
        <ele>229</ele>
        <time>2021-12-04T11:17:28+01:00</time>
      </trkpt>
      <trkpt lat="43.74564" lon="4.79705">
        <ele>233</ele>
        <time>2021-12-04T11:17:58+01:00</time>
      </trkpt>
      <trkpt lat="43.7457" lon="4.79674">
        <ele>230</ele>
        <time>2021-12-04T11:18:22+01:00</time>
      </trkpt>
      <trkpt lat="43.74575" lon="4.79644">
        <ele>227</ele>
        <time>2021-12-04T11:18:44+01:00</time>
      </trkpt>
      <trkpt lat="43.74558" lon="4.79623">
        <ele>230</ele>
        <time>2021-12-04T11:19:15+01:00</time>
      </trkpt>
      <trkpt lat="43.74538" lon="4.79608">
        <ele>226</ele>
        <time>2021-12-04T11:19:38+01:00</time>
      </trkpt>
      <trkpt lat="43.74522" lon="4.79585">
        <ele>232</ele>
        <time>2021-12-04T11:19:58+01:00</time>
      </trkpt>
      <trkpt lat="43.74517" lon="4.79554">
        <ele>240</ele>
        <time>2021-12-04T11:21:06+01:00</time>
      </trkpt>
      <trkpt lat="43.74495" lon="4.79546">
        <ele>239</ele>
        <time>2021-12-04T11:22:29+01:00</time>
      </trkpt>
      <trkpt lat="43.74473" lon="4.79537">
        <ele>240</ele>
        <time>2021-12-04T11:23:17+01:00</time>
      </trkpt>
      <trkpt lat="43.74449" lon="4.79536">
        <ele>241</ele>
        <time>2021-12-04T11:23:54+01:00</time>
      </trkpt>
      <trkpt lat="43.74427" lon="4.79531">
        <ele>240</ele>
        <time>2021-12-04T11:24:28+01:00</time>
      </trkpt>
      <trkpt lat="43.74404" lon="4.79538">
        <ele>251</ele>
        <time>2021-12-04T11:25:01+01:00</time>
      </trkpt>
      <trkpt lat="43.74384" lon="4.79524">
        <ele>249</ele>
        <time>2021-12-04T11:25:26+01:00</time>
      </trkpt>
      <trkpt lat="43.74372" lon="4.79497">
        <ele>250</ele>
        <time>2021-12-04T11:27:51+01:00</time>
      </trkpt>
      <trkpt lat="43.74376" lon="4.79466">
        <ele>248</ele>
        <time>2021-12-04T11:29:33+01:00</time>
      </trkpt>
      <trkpt lat="43.74362" lon="4.79439">
        <ele>256</ele>
        <time>2021-12-04T11:30:10+01:00</time>
      </trkpt>
      <trkpt lat="43.74354" lon="4.79408">
        <ele>251</ele>
        <time>2021-12-04T11:31:15+01:00</time>
      </trkpt>
      <trkpt lat="43.74361" lon="4.79439">
        <ele>254</ele>
        <time>2021-12-04T11:37:56+01:00</time>
      </trkpt>
      <trkpt lat="43.7438" lon="4.79456">
        <ele>247</ele>
        <time>2021-12-04T11:38:20+01:00</time>
      </trkpt>
      <trkpt lat="43.74391" lon="4.79484">
        <ele>244</ele>
        <time>2021-12-04T11:39:01+01:00</time>
      </trkpt>
      <trkpt lat="43.74413" lon="4.79491">
        <ele>242</ele>
        <time>2021-12-04T11:39:31+01:00</time>
      </trkpt>
      <trkpt lat="43.74414" lon="4.7946">
        <ele>229</ele>
        <time>2021-12-04T11:41:13+01:00</time>
      </trkpt>
      <trkpt lat="43.74437" lon="4.79473">
        <ele>221</ele>
        <time>2021-12-04T11:42:33+01:00</time>
      </trkpt>
      <trkpt lat="43.74452" lon="4.79449">
        <ele>214</ele>
        <time>2021-12-04T11:43:28+01:00</time>
      </trkpt>
      <trkpt lat="43.74463" lon="4.79422">
        <ele>199</ele>
        <time>2021-12-04T11:44:42+01:00</time>
      </trkpt>
      <trkpt lat="43.74475" lon="4.79395">
        <ele>188</ele>
        <time>2021-12-04T11:45:46+01:00</time>
      </trkpt>
      <trkpt lat="43.74477" lon="4.79364">
        <ele>185</ele>
        <time>2021-12-04T11:46:11+01:00</time>
      </trkpt>
      <trkpt lat="43.74485" lon="4.79335">
        <ele>184</ele>
        <time>2021-12-04T11:46:36+01:00</time>
      </trkpt>
      <trkpt lat="43.74484" lon="4.79303">
        <ele>179</ele>
        <time>2021-12-04T11:47:08+01:00</time>
      </trkpt>
      <trkpt lat="43.74461" lon="4.793">
        <ele>174</ele>
        <time>2021-12-04T11:47:36+01:00</time>
      </trkpt>
      <trkpt lat="43.74441" lon="4.79284">
        <ele>178</ele>
        <time>2021-12-04T11:47:55+01:00</time>
      </trkpt>
      <trkpt lat="43.74449" lon="4.79254">
        <ele>178</ele>
        <time>2021-12-04T11:49:54+01:00</time>
      </trkpt>
      <trkpt lat="43.74467" lon="4.7923">
        <ele>184</ele>
        <time>2021-12-04T11:59:44+01:00</time>
      </trkpt>
      <trkpt lat="43.7445" lon="4.79251">
        <ele>180</ele>
        <time>2021-12-04T12:11:50+01:00</time>
      </trkpt>
      <trkpt lat="43.74448" lon="4.79282">
        <ele>182</ele>
        <time>2021-12-04T12:13:11+01:00</time>
      </trkpt>
      <trkpt lat="43.74449" lon="4.7925">
        <ele>173</ele>
        <time>2021-12-04T12:13:53+01:00</time>
      </trkpt>
      <trkpt lat="43.74469" lon="4.79223">
        <ele>179</ele>
        <time>2021-12-04T12:16:54+01:00</time>
      </trkpt>
      <trkpt lat="43.74453" lon="4.79245">
        <ele>172</ele>
        <time>2021-12-04T12:27:24+01:00</time>
      </trkpt>
      <trkpt lat="43.7444" lon="4.79271">
        <ele>172</ele>
        <time>2021-12-04T12:27:55+01:00</time>
      </trkpt>
      <trkpt lat="43.74417" lon="4.79264">
        <ele>172</ele>
        <time>2021-12-04T12:29:10+01:00</time>
      </trkpt>
      <trkpt lat="43.74397" lon="4.79252">
        <ele>173</ele>
        <time>2021-12-04T12:30:08+01:00</time>
      </trkpt>
      <trkpt lat="43.74376" lon="4.79237">
        <ele>173</ele>
        <time>2021-12-04T12:33:17+01:00</time>
      </trkpt>
      <trkpt lat="43.74357" lon="4.79219">
        <ele>173</ele>
        <time>2021-12-04T12:33:33+01:00</time>
      </trkpt>
      <trkpt lat="43.74338" lon="4.79202">
        <ele>174</ele>
        <time>2021-12-04T12:33:57+01:00</time>
      </trkpt>
      <trkpt lat="43.74319" lon="4.79185">
        <ele>177</ele>
        <time>2021-12-04T12:34:12+01:00</time>
      </trkpt>
      <trkpt lat="43.74298" lon="4.79171">
        <ele>174</ele>
        <time>2021-12-04T12:34:32+01:00</time>
      </trkpt>
      <trkpt lat="43.74279" lon="4.79153">
        <ele>174</ele>
        <time>2021-12-04T12:34:50+01:00</time>
      </trkpt>
      <trkpt lat="43.74259" lon="4.79136">
        <ele>173</ele>
        <time>2021-12-04T12:35:09+01:00</time>
      </trkpt>
      <trkpt lat="43.74238" lon="4.79123">
        <ele>169</ele>
        <time>2021-12-04T12:35:30+01:00</time>
      </trkpt>
      <trkpt lat="43.7422" lon="4.79104">
        <ele>167</ele>
        <time>2021-12-04T12:35:50+01:00</time>
      </trkpt>
      <trkpt lat="43.74202" lon="4.79085">
        <ele>169</ele>
        <time>2021-12-04T12:36:11+01:00</time>
      </trkpt>
      <trkpt lat="43.74183" lon="4.7907">
        <ele>166</ele>
        <time>2021-12-04T12:36:31+01:00</time>
      </trkpt>
      <trkpt lat="43.74161" lon="4.7906">
        <ele>163</ele>
        <time>2021-12-04T12:36:50+01:00</time>
      </trkpt>
      <trkpt lat="43.74138" lon="4.79053">
        <ele>164</ele>
        <time>2021-12-04T12:37:09+01:00</time>
      </trkpt>
      <trkpt lat="43.74117" lon="4.79041">
        <ele>165</ele>
        <time>2021-12-04T12:37:28+01:00</time>
      </trkpt>
      <trkpt lat="43.74097" lon="4.79027">
        <ele>164</ele>
        <time>2021-12-04T12:37:47+01:00</time>
      </trkpt>
      <trkpt lat="43.74077" lon="4.79008">
        <ele>166</ele>
        <time>2021-12-04T12:38:05+01:00</time>
      </trkpt>
      <trkpt lat="43.74063" lon="4.78984">
        <ele>159</ele>
        <time>2021-12-04T12:38:26+01:00</time>
      </trkpt>
      <trkpt lat="43.7408" lon="4.78964">
        <ele>156</ele>
        <time>2021-12-04T12:38:45+01:00</time>
      </trkpt>
      <trkpt lat="43.74094" lon="4.78937">
        <ele>153</ele>
        <time>2021-12-04T12:39:04+01:00</time>
      </trkpt>
      <trkpt lat="43.74108" lon="4.78911">
        <ele>150</ele>
        <time>2021-12-04T12:39:23+01:00</time>
      </trkpt>
      <trkpt lat="43.7412" lon="4.78885">
        <ele>148</ele>
        <time>2021-12-04T12:39:44+01:00</time>
      </trkpt>
      <trkpt lat="43.74132" lon="4.78857">
        <ele>151</ele>
        <time>2021-12-04T12:40:04+01:00</time>
      </trkpt>
      <trkpt lat="43.74126" lon="4.78825">
        <ele>149</ele>
        <time>2021-12-04T12:40:24+01:00</time>
      </trkpt>
      <trkpt lat="43.74117" lon="4.78795">
        <ele>149</ele>
        <time>2021-12-04T12:40:43+01:00</time>
      </trkpt>
      <trkpt lat="43.74107" lon="4.78767">
        <ele>153</ele>
        <time>2021-12-04T12:41:01+01:00</time>
      </trkpt>
      <trkpt lat="43.74095" lon="4.7874">
        <ele>153</ele>
        <time>2021-12-04T12:41:25+01:00</time>
      </trkpt>
      <trkpt lat="43.74094" lon="4.78709">
        <ele>147</ele>
        <time>2021-12-04T12:41:53+01:00</time>
      </trkpt>
      <trkpt lat="43.74089" lon="4.78678">
        <ele>145</ele>
        <time>2021-12-04T12:42:09+01:00</time>
      </trkpt>
      <trkpt lat="43.74076" lon="4.78652">
        <ele>146</ele>
        <time>2021-12-04T12:42:26+01:00</time>
      </trkpt>
      <trkpt lat="43.74061" lon="4.78629">
        <ele>147</ele>
        <time>2021-12-04T12:42:43+01:00</time>
      </trkpt>
      <trkpt lat="43.74045" lon="4.78607">
        <ele>150</ele>
        <time>2021-12-04T12:43:05+01:00</time>
      </trkpt>
      <trkpt lat="43.74025" lon="4.78591">
        <ele>149</ele>
        <time>2021-12-04T12:43:26+01:00</time>
      </trkpt>
      <trkpt lat="43.74003" lon="4.78584">
        <ele>153</ele>
        <time>2021-12-04T12:43:46+01:00</time>
      </trkpt>
      <trkpt lat="43.73982" lon="4.7857">
        <ele>157</ele>
        <time>2021-12-04T12:44:07+01:00</time>
      </trkpt>
      <trkpt lat="43.73962" lon="4.78555">
        <ele>160</ele>
        <time>2021-12-04T12:44:27+01:00</time>
      </trkpt>
      <trkpt lat="43.73944" lon="4.78535">
        <ele>159</ele>
        <time>2021-12-04T12:44:46+01:00</time>
      </trkpt>
      <trkpt lat="43.73925" lon="4.78518">
        <ele>161</ele>
        <time>2021-12-04T12:45:05+01:00</time>
      </trkpt>
      <trkpt lat="43.73904" lon="4.78506">
        <ele>161</ele>
        <time>2021-12-04T12:45:25+01:00</time>
      </trkpt>
      <trkpt lat="43.73881" lon="4.78501">
        <ele>158</ele>
        <time>2021-12-04T12:45:45+01:00</time>
      </trkpt>
      <trkpt lat="43.7386" lon="4.78491">
        <ele>156</ele>
        <time>2021-12-04T12:46:06+01:00</time>
      </trkpt>
      <trkpt lat="43.73843" lon="4.7847">
        <ele>155</ele>
        <time>2021-12-04T12:46:25+01:00</time>
      </trkpt>
      <trkpt lat="43.73828" lon="4.78447">
        <ele>158</ele>
        <time>2021-12-04T12:46:43+01:00</time>
      </trkpt>
      <trkpt lat="43.73817" lon="4.78418">
        <ele>157</ele>
        <time>2021-12-04T12:47:08+01:00</time>
      </trkpt>
      <trkpt lat="43.73822" lon="4.78387">
        <ele>153</ele>
        <time>2021-12-04T12:47:32+01:00</time>
      </trkpt>
      <trkpt lat="43.73822" lon="4.78356">
        <ele>157</ele>
        <time>2021-12-04T12:49:00+01:00</time>
      </trkpt>
      <trkpt lat="43.73835" lon="4.78329">
        <ele>154</ele>
        <time>2021-12-04T12:50:02+01:00</time>
      </trkpt>
      <trkpt lat="43.73828" lon="4.78299">
        <ele>152</ele>
        <time>2021-12-04T12:50:31+01:00</time>
      </trkpt>
      <trkpt lat="43.73809" lon="4.78282">
        <ele>151</ele>
        <time>2021-12-04T12:51:09+01:00</time>
      </trkpt>
      <trkpt lat="43.73797" lon="4.78255">
        <ele>154</ele>
        <time>2021-12-04T12:51:36+01:00</time>
      </trkpt>
      <trkpt lat="43.73791" lon="4.78224">
        <ele>154</ele>
        <time>2021-12-04T12:54:06+01:00</time>
      </trkpt>
      <trkpt lat="43.73787" lon="4.78192">
        <ele>155</ele>
        <time>2021-12-04T12:54:33+01:00</time>
      </trkpt>
      <trkpt lat="43.73778" lon="4.78163">
        <ele>164</ele>
        <time>2021-12-04T12:54:54+01:00</time>
      </trkpt>
      <trkpt lat="43.73783" lon="4.78133">
        <ele>162</ele>
        <time>2021-12-04T12:55:19+01:00</time>
      </trkpt>
      <trkpt lat="43.73769" lon="4.78108">
        <ele>161</ele>
        <time>2021-12-04T12:55:48+01:00</time>
      </trkpt>
      <trkpt lat="43.73762" lon="4.78078">
        <ele>159</ele>
        <time>2021-12-04T12:56:43+01:00</time>
      </trkpt>
      <trkpt lat="43.73763" lon="4.78047">
        <ele>152</ele>
        <time>2021-12-04T12:57:24+01:00</time>
      </trkpt>
      <trkpt lat="43.73755" lon="4.78017">
        <ele>149</ele>
        <time>2021-12-04T12:57:47+01:00</time>
      </trkpt>
      <trkpt lat="43.73744" lon="4.77988">
        <ele>147</ele>
        <time>2021-12-04T12:58:11+01:00</time>
      </trkpt>
      <trkpt lat="43.73738" lon="4.77958">
        <ele>145</ele>
        <time>2021-12-04T12:58:32+01:00</time>
      </trkpt>
      <trkpt lat="43.73728" lon="4.77929">
        <ele>140</ele>
        <time>2021-12-04T12:59:30+01:00</time>
      </trkpt>
      <trkpt lat="43.73713" lon="4.77905">
        <ele>138</ele>
        <time>2021-12-04T12:59:50+01:00</time>
      </trkpt>
      <trkpt lat="43.73701" lon="4.77878">
        <ele>135</ele>
        <time>2021-12-04T13:00:12+01:00</time>
      </trkpt>
      <trkpt lat="43.73694" lon="4.77847">
        <ele>134</ele>
        <time>2021-12-04T13:00:34+01:00</time>
      </trkpt>
      <trkpt lat="43.73693" lon="4.77815">
        <ele>133</ele>
        <time>2021-12-04T13:00:56+01:00</time>
      </trkpt>
      <trkpt lat="43.73691" lon="4.77783">
        <ele>134</ele>
        <time>2021-12-04T13:01:13+01:00</time>
      </trkpt>
      <trkpt lat="43.73689" lon="4.77751">
        <ele>131</ele>
        <time>2021-12-04T13:01:33+01:00</time>
      </trkpt>
      <trkpt lat="43.73681" lon="4.77721">
        <ele>125</ele>
        <time>2021-12-04T13:01:51+01:00</time>
      </trkpt>
      <trkpt lat="43.73678" lon="4.77691">
        <ele>130</ele>
        <time>2021-12-04T13:02:11+01:00</time>
      </trkpt>
      <trkpt lat="43.73668" lon="4.77662">
        <ele>139</ele>
        <time>2021-12-04T13:02:30+01:00</time>
      </trkpt>
      <trkpt lat="43.73671" lon="4.7763">
        <ele>140</ele>
        <time>2021-12-04T13:02:57+01:00</time>
      </trkpt>
      <trkpt lat="43.7368" lon="4.77601">
        <ele>139</ele>
        <time>2021-12-04T13:03:19+01:00</time>
      </trkpt>
      <trkpt lat="43.73681" lon="4.7757">
        <ele>141</ele>
        <time>2021-12-04T13:03:39+01:00</time>
      </trkpt>
      <trkpt lat="43.73686" lon="4.77538">
        <ele>145</ele>
        <time>2021-12-04T13:04:02+01:00</time>
      </trkpt>
      <trkpt lat="43.7369" lon="4.77507">
        <ele>147</ele>
        <time>2021-12-04T13:04:24+01:00</time>
      </trkpt>
      <trkpt lat="43.73694" lon="4.77476">
        <ele>149</ele>
        <time>2021-12-04T13:04:51+01:00</time>
      </trkpt>
      <trkpt lat="43.73694" lon="4.77444">
        <ele>153</ele>
        <time>2021-12-04T13:05:17+01:00</time>
      </trkpt>
      <trkpt lat="43.73695" lon="4.77413">
        <ele>156</ele>
        <time>2021-12-04T13:05:40+01:00</time>
      </trkpt>
      <trkpt lat="43.73694" lon="4.77381">
        <ele>146</ele>
        <time>2021-12-04T13:10:31+01:00</time>
      </trkpt>
      <trkpt lat="43.73682" lon="4.77355">
        <ele>150</ele>
        <time>2021-12-04T13:11:46+01:00</time>
      </trkpt>
      <trkpt lat="43.73675" lon="4.77325">
        <ele>150</ele>
        <time>2021-12-04T13:12:07+01:00</time>
      </trkpt>
      <trkpt lat="43.73665" lon="4.77297">
        <ele>152</ele>
        <time>2021-12-04T13:12:35+01:00</time>
      </trkpt>
      <trkpt lat="43.73656" lon="4.77267">
        <ele>151</ele>
        <time>2021-12-04T13:13:02+01:00</time>
      </trkpt>
      <trkpt lat="43.7365" lon="4.77237">
        <ele>154</ele>
        <time>2021-12-04T13:13:23+01:00</time>
      </trkpt>
      <trkpt lat="43.73646" lon="4.77206">
        <ele>156</ele>
        <time>2021-12-04T13:13:48+01:00</time>
      </trkpt>
      <trkpt lat="43.7363" lon="4.77182">
        <ele>159</ele>
        <time>2021-12-04T13:14:24+01:00</time>
      </trkpt>
      <trkpt lat="43.73616" lon="4.77157">
        <ele>161</ele>
        <time>2021-12-04T13:14:54+01:00</time>
      </trkpt>
      <trkpt lat="43.73612" lon="4.77125">
        <ele>162</ele>
        <time>2021-12-04T13:15:22+01:00</time>
      </trkpt>
      <trkpt lat="43.73602" lon="4.77096">
        <ele>166</ele>
        <time>2021-12-04T13:15:43+01:00</time>
      </trkpt>
      <trkpt lat="43.73587" lon="4.77072">
        <ele>169</ele>
        <time>2021-12-04T13:16:05+01:00</time>
      </trkpt>
      <trkpt lat="43.73576" lon="4.77043">
        <ele>167</ele>
        <time>2021-12-04T13:16:32+01:00</time>
      </trkpt>
      <trkpt lat="43.73555" lon="4.7703">
        <ele>170</ele>
        <time>2021-12-04T13:16:57+01:00</time>
      </trkpt>
      <trkpt lat="43.73533" lon="4.7702">
        <ele>172</ele>
        <time>2021-12-04T13:17:15+01:00</time>
      </trkpt>
      <trkpt lat="43.73511" lon="4.77011">
        <ele>174</ele>
        <time>2021-12-04T13:17:36+01:00</time>
      </trkpt>
      <trkpt lat="43.73489" lon="4.77004">
        <ele>173</ele>
        <time>2021-12-04T13:17:57+01:00</time>
      </trkpt>
      <trkpt lat="43.73467" lon="4.76993">
        <ele>169</ele>
        <time>2021-12-04T13:18:21+01:00</time>
      </trkpt>
      <trkpt lat="43.73445" lon="4.76985">
        <ele>168</ele>
        <time>2021-12-04T13:18:44+01:00</time>
      </trkpt>
      <trkpt lat="43.73423" lon="4.76976">
        <ele>170</ele>
        <time>2021-12-04T13:19:04+01:00</time>
      </trkpt>
      <trkpt lat="43.73401" lon="4.76969">
        <ele>166</ele>
        <time>2021-12-04T13:19:28+01:00</time>
      </trkpt>
      <trkpt lat="43.73379" lon="4.7696">
        <ele>165</ele>
        <time>2021-12-04T13:19:49+01:00</time>
      </trkpt>
      <trkpt lat="43.73357" lon="4.76952">
        <ele>165</ele>
        <time>2021-12-04T13:20:12+01:00</time>
      </trkpt>
      <trkpt lat="43.73335" lon="4.76941">
        <ele>164</ele>
        <time>2021-12-04T13:20:31+01:00</time>
      </trkpt>
      <trkpt lat="43.73313" lon="4.76933">
        <ele>155</ele>
        <time>2021-12-04T13:20:51+01:00</time>
      </trkpt>
      <trkpt lat="43.73293" lon="4.76917">
        <ele>153</ele>
        <time>2021-12-04T13:21:12+01:00</time>
      </trkpt>
      <trkpt lat="43.73278" lon="4.76893">
        <ele>153</ele>
        <time>2021-12-04T13:21:37+01:00</time>
      </trkpt>
      <trkpt lat="43.73269" lon="4.76864">
        <ele>153</ele>
        <time>2021-12-04T13:22:00+01:00</time>
      </trkpt>
      <trkpt lat="43.73259" lon="4.76835">
        <ele>152</ele>
        <time>2021-12-04T13:22:17+01:00</time>
      </trkpt>
      <trkpt lat="43.73267" lon="4.76804">
        <ele>153</ele>
        <time>2021-12-04T13:22:38+01:00</time>
      </trkpt>
      <trkpt lat="43.73267" lon="4.76771">
        <ele>153</ele>
        <time>2021-12-04T13:23:00+01:00</time>
      </trkpt>
      <trkpt lat="43.73247" lon="4.76758">
        <ele>148</ele>
        <time>2021-12-04T13:23:21+01:00</time>
      </trkpt>
      <trkpt lat="43.73224" lon="4.76754">
        <ele>145</ele>
        <time>2021-12-04T13:23:49+01:00</time>
      </trkpt>
      <trkpt lat="43.73202" lon="4.76744">
        <ele>143</ele>
        <time>2021-12-04T13:24:54+01:00</time>
      </trkpt>
      <trkpt lat="43.73181" lon="4.76732">
        <ele>140</ele>
        <time>2021-12-04T13:25:17+01:00</time>
      </trkpt>
      <trkpt lat="43.73161" lon="4.76715">
        <ele>137</ele>
        <time>2021-12-04T13:25:38+01:00</time>
      </trkpt>
      <trkpt lat="43.73138" lon="4.76719">
        <ele>132</ele>
        <time>2021-12-04T13:25:58+01:00</time>
      </trkpt>
      <trkpt lat="43.73115" lon="4.76723">
        <ele>131</ele>
        <time>2021-12-04T13:26:18+01:00</time>
      </trkpt>
      <trkpt lat="43.73093" lon="4.7672">
        <ele>130</ele>
        <time>2021-12-04T13:26:39+01:00</time>
      </trkpt>
      <trkpt lat="43.7307" lon="4.76714">
        <ele>125</ele>
        <time>2021-12-04T13:27:01+01:00</time>
      </trkpt>
      <trkpt lat="43.73048" lon="4.7671">
        <ele>128</ele>
        <time>2021-12-04T13:27:24+01:00</time>
      </trkpt>
      <trkpt lat="43.73026" lon="4.76703">
        <ele>130</ele>
        <time>2021-12-04T13:27:42+01:00</time>
      </trkpt>
      <trkpt lat="43.73003" lon="4.76696">
        <ele>127</ele>
        <time>2021-12-04T13:28:04+01:00</time>
      </trkpt>
      <trkpt lat="43.72976" lon="4.76702">
        <ele>123</ele>
        <time>2021-12-04T13:28:34+01:00</time>
      </trkpt>
      <trkpt lat="43.72953" lon="4.76704">
        <ele>123</ele>
        <time>2021-12-04T13:28:56+01:00</time>
      </trkpt>
      <trkpt lat="43.72931" lon="4.767">
        <ele>122</ele>
        <time>2021-12-04T13:29:17+01:00</time>
      </trkpt>
      <trkpt lat="43.7291" lon="4.76685">
        <ele>121</ele>
        <time>2021-12-04T13:29:38+01:00</time>
      </trkpt>
      <trkpt lat="43.72893" lon="4.76665">
        <ele>118</ele>
        <time>2021-12-04T13:33:04+01:00</time>
      </trkpt>
      <trkpt lat="43.72871" lon="4.76672">
        <ele>119</ele>
        <time>2021-12-04T13:33:36+01:00</time>
      </trkpt>
      <trkpt lat="43.72847" lon="4.76673">
        <ele>115</ele>
        <time>2021-12-04T13:34:03+01:00</time>
      </trkpt>
      <trkpt lat="43.72824" lon="4.76675">
        <ele>118</ele>
        <time>2021-12-04T13:34:24+01:00</time>
      </trkpt>
      <trkpt lat="43.72802" lon="4.76667">
        <ele>114</ele>
        <time>2021-12-04T13:34:46+01:00</time>
      </trkpt>
      <trkpt lat="43.72781" lon="4.76653">
        <ele>106</ele>
        <time>2021-12-04T13:35:08+01:00</time>
      </trkpt>
      <trkpt lat="43.72761" lon="4.76638">
        <ele>106</ele>
        <time>2021-12-04T13:35:26+01:00</time>
      </trkpt>
      <trkpt lat="43.72745" lon="4.76615">
        <ele>107</ele>
        <time>2021-12-04T13:35:50+01:00</time>
      </trkpt>
      <trkpt lat="43.72724" lon="4.76599">
        <ele>106</ele>
        <time>2021-12-04T13:36:10+01:00</time>
      </trkpt>
      <trkpt lat="43.72705" lon="4.76582">
        <ele>109</ele>
        <time>2021-12-04T13:36:29+01:00</time>
      </trkpt>
      <trkpt lat="43.72684" lon="4.7657">
        <ele>107</ele>
        <time>2021-12-04T13:36:52+01:00</time>
      </trkpt>
      <trkpt lat="43.72665" lon="4.76552">
        <ele>107</ele>
        <time>2021-12-04T13:37:13+01:00</time>
      </trkpt>
      <trkpt lat="43.72642" lon="4.76559">
        <ele>105</ele>
        <time>2021-12-04T13:37:52+01:00</time>
      </trkpt>
      <trkpt lat="43.72627" lon="4.76583">
        <ele>104</ele>
        <time>2021-12-04T13:38:10+01:00</time>
      </trkpt>
      <trkpt lat="43.72609" lon="4.76602">
        <ele>109</ele>
        <time>2021-12-04T13:38:34+01:00</time>
      </trkpt>
      <trkpt lat="43.72593" lon="4.76625">
        <ele>96</ele>
        <time>2021-12-04T13:38:55+01:00</time>
      </trkpt>
      <trkpt lat="43.72579" lon="4.76649">
        <ele>98</ele>
        <time>2021-12-04T13:39:15+01:00</time>
      </trkpt>
      <trkpt lat="43.72569" lon="4.7668">
        <ele>101</ele>
        <time>2021-12-04T13:39:43+01:00</time>
      </trkpt>
      <trkpt lat="43.72559" lon="4.76709">
        <ele>105</ele>
        <time>2021-12-04T13:40:05+01:00</time>
      </trkpt>
      <trkpt lat="43.72552" lon="4.76739">
        <ele>100</ele>
        <time>2021-12-04T13:40:28+01:00</time>
      </trkpt>
      <trkpt lat="43.72546" lon="4.7677">
        <ele>101</ele>
        <time>2021-12-04T13:40:51+01:00</time>
      </trkpt>
      <trkpt lat="43.72541" lon="4.76802">
        <ele>100</ele>
        <time>2021-12-04T13:41:12+01:00</time>
      </trkpt>
      <trkpt lat="43.7254" lon="4.76833">
        <ele>100</ele>
        <time>2021-12-04T13:41:35+01:00</time>
      </trkpt>
      <trkpt lat="43.7254" lon="4.76865">
        <ele>99</ele>
        <time>2021-12-04T13:41:57+01:00</time>
      </trkpt>
      <trkpt lat="43.72539" lon="4.76896">
        <ele>98</ele>
        <time>2021-12-04T13:42:16+01:00</time>
      </trkpt>
      <trkpt lat="43.72541" lon="4.76929">
        <ele>98</ele>
        <time>2021-12-04T13:42:39+01:00</time>
      </trkpt>
      <trkpt lat="43.72543" lon="4.76961">
        <ele>98</ele>
        <time>2021-12-04T13:43:01+01:00</time>
      </trkpt>
      <trkpt lat="43.72544" lon="4.76992">
        <ele>98</ele>
        <time>2021-12-04T13:43:20+01:00</time>
      </trkpt>
      <trkpt lat="43.72544" lon="4.77024">
        <ele>97</ele>
        <time>2021-12-04T13:43:41+01:00</time>
      </trkpt>
      <trkpt lat="43.7255" lon="4.77054">
        <ele>101</ele>
        <time>2021-12-04T13:44:04+01:00</time>
      </trkpt>
      <trkpt lat="43.72549" lon="4.77086">
        <ele>100</ele>
        <time>2021-12-04T13:44:23+01:00</time>
      </trkpt>
      <trkpt lat="43.72549" lon="4.77118">
        <ele>98</ele>
        <time>2021-12-04T13:44:42+01:00</time>
      </trkpt>
      <trkpt lat="43.72551" lon="4.7715">
        <ele>100</ele>
        <time>2021-12-04T13:45:02+01:00</time>
      </trkpt>
      <trkpt lat="43.72551" lon="4.77182">
        <ele>97</ele>
        <time>2021-12-04T13:45:24+01:00</time>
      </trkpt>
      <trkpt lat="43.72554" lon="4.77213">
        <ele>96</ele>
        <time>2021-12-04T13:45:42+01:00</time>
      </trkpt>
      <trkpt lat="43.72555" lon="4.77245">
        <ele>96</ele>
        <time>2021-12-04T13:46:04+01:00</time>
      </trkpt>
      <trkpt lat="43.72557" lon="4.77276">
        <ele>93</ele>
        <time>2021-12-04T13:46:23+01:00</time>
      </trkpt>
      <trkpt lat="43.72558" lon="4.77307">
        <ele>94</ele>
        <time>2021-12-04T13:46:44+01:00</time>
      </trkpt>
      <trkpt lat="43.72559" lon="4.7734">
        <ele>95</ele>
        <time>2021-12-04T13:47:06+01:00</time>
      </trkpt>
      <trkpt lat="43.7256" lon="4.77371">
        <ele>93</ele>
        <time>2021-12-04T13:47:25+01:00</time>
      </trkpt>
      <trkpt lat="43.7256" lon="4.77403">
        <ele>95</ele>
        <time>2021-12-04T13:47:46+01:00</time>
      </trkpt>
      <trkpt lat="43.72557" lon="4.77434">
        <ele>95</ele>
        <time>2021-12-04T13:48:04+01:00</time>
      </trkpt>
      <trkpt lat="43.72553" lon="4.77465">
        <ele>94</ele>
        <time>2021-12-04T13:48:26+01:00</time>
      </trkpt>
      <trkpt lat="43.72547" lon="4.77495">
        <ele>90</ele>
        <time>2021-12-04T13:48:46+01:00</time>
      </trkpt>
      <trkpt lat="43.72539" lon="4.77525">
        <ele>90</ele>
        <time>2021-12-04T13:49:06+01:00</time>
      </trkpt>
      <trkpt lat="43.72528" lon="4.77553">
        <ele>88</ele>
        <time>2021-12-04T13:49:27+01:00</time>
      </trkpt>
      <trkpt lat="43.72516" lon="4.7758">
        <ele>86</ele>
        <time>2021-12-04T13:49:48+01:00</time>
      </trkpt>
      <trkpt lat="43.72503" lon="4.77608">
        <ele>86</ele>
        <time>2021-12-04T13:50:06+01:00</time>
      </trkpt>
      <trkpt lat="43.72489" lon="4.77633">
        <ele>88</ele>
        <time>2021-12-04T13:50:26+01:00</time>
      </trkpt>
      <trkpt lat="43.72472" lon="4.77654">
        <ele>87</ele>
        <time>2021-12-04T13:50:45+01:00</time>
      </trkpt>
      <trkpt lat="43.72455" lon="4.77676">
        <ele>85</ele>
        <time>2021-12-04T13:51:06+01:00</time>
      </trkpt>
      <trkpt lat="43.72439" lon="4.777">
        <ele>85</ele>
        <time>2021-12-04T13:51:24+01:00</time>
      </trkpt>
      <trkpt lat="43.72425" lon="4.77725">
        <ele>87</ele>
        <time>2021-12-04T13:51:43+01:00</time>
      </trkpt>
      <trkpt lat="43.72415" lon="4.77753">
        <ele>86</ele>
        <time>2021-12-04T13:52:04+01:00</time>
      </trkpt>
      <trkpt lat="43.72404" lon="4.77782">
        <ele>85</ele>
        <time>2021-12-04T13:52:26+01:00</time>
      </trkpt>
      <trkpt lat="43.72396" lon="4.77811">
        <ele>83</ele>
        <time>2021-12-04T13:52:46+01:00</time>
      </trkpt>
      <trkpt lat="43.72395" lon="4.77843">
        <ele>84</ele>
        <time>2021-12-04T13:53:09+01:00</time>
      </trkpt>
      <trkpt lat="43.72394" lon="4.77875">
        <ele>85</ele>
        <time>2021-12-04T13:53:27+01:00</time>
      </trkpt>
      <trkpt lat="43.72397" lon="4.77907">
        <ele>83</ele>
        <time>2021-12-04T13:53:49+01:00</time>
      </trkpt>
      <trkpt lat="43.72403" lon="4.77937">
        <ele>82</ele>
        <time>2021-12-04T13:58:45+01:00</time>
      </trkpt>
      <trkpt lat="43.72408" lon="4.77968">
        <ele>83</ele>
        <time>2021-12-04T13:59:39+01:00</time>
      </trkpt>
      <trkpt lat="43.72414" lon="4.77998">
        <ele>83</ele>
        <time>2021-12-04T14:00:00+01:00</time>
      </trkpt>
      <trkpt lat="43.72411" lon="4.78029">
        <ele>86</ele>
        <time>2021-12-04T14:00:21+01:00</time>
      </trkpt>
      <trkpt lat="43.72414" lon="4.78061">
        <ele>87</ele>
        <time>2021-12-04T14:00:38+01:00</time>
      </trkpt>
      <trkpt lat="43.7243" lon="4.78084">
        <ele>84</ele>
        <time>2021-12-04T14:00:57+01:00</time>
      </trkpt>
      <trkpt lat="43.72445" lon="4.78107">
        <ele>83</ele>
        <time>2021-12-04T14:01:20+01:00</time>
      </trkpt>
      <trkpt lat="43.72446" lon="4.7814">
        <ele>84</ele>
        <time>2021-12-04T14:01:38+01:00</time>
      </trkpt>
      <trkpt lat="43.72445" lon="4.78172">
        <ele>85</ele>
        <time>2021-12-04T14:02:05+01:00</time>
      </trkpt>
      <trkpt lat="43.72443" lon="4.78203">
        <ele>86</ele>
        <time>2021-12-04T14:02:28+01:00</time>
      </trkpt>
      <trkpt lat="43.72457" lon="4.78227">
        <ele>86</ele>
        <time>2021-12-04T14:02:48+01:00</time>
      </trkpt>
      <trkpt lat="43.72473" lon="4.78251">
        <ele>81</ele>
        <time>2021-12-04T14:03:13+01:00</time>
      </trkpt>
      <trkpt lat="43.7249" lon="4.78271">
        <ele>82</ele>
        <time>2021-12-04T14:03:32+01:00</time>
      </trkpt>
      <trkpt lat="43.72499" lon="4.78302">
        <ele>86</ele>
        <time>2021-12-04T14:03:53+01:00</time>
      </trkpt>
      <trkpt lat="43.72497" lon="4.78334">
        <ele>85</ele>
        <time>2021-12-04T14:04:13+01:00</time>
      </trkpt>
      <trkpt lat="43.72484" lon="4.7836">
        <ele>86</ele>
        <time>2021-12-04T14:04:32+01:00</time>
      </trkpt>
      <trkpt lat="43.72469" lon="4.78384">
        <ele>86</ele>
        <time>2021-12-04T14:04:51+01:00</time>
      </trkpt>
      <trkpt lat="43.72452" lon="4.78406">
        <ele>88</ele>
        <time>2021-12-04T14:05:11+01:00</time>
      </trkpt>
      <trkpt lat="43.72444" lon="4.78436">
        <ele>86</ele>
        <time>2021-12-04T14:05:34+01:00</time>
      </trkpt>
      <trkpt lat="43.72458" lon="4.7846">
        <ele>88</ele>
        <time>2021-12-04T14:05:56+01:00</time>
      </trkpt>
      <trkpt lat="43.72471" lon="4.78487">
        <ele>88</ele>
        <time>2021-12-04T14:06:17+01:00</time>
      </trkpt>
      <trkpt lat="43.72479" lon="4.78517">
        <ele>88</ele>
        <time>2021-12-04T14:06:37+01:00</time>
      </trkpt>
      <trkpt lat="43.72478" lon="4.78549">
        <ele>89</ele>
        <time>2021-12-04T14:06:56+01:00</time>
      </trkpt>
      <trkpt lat="43.7247" lon="4.78579">
        <ele>89</ele>
        <time>2021-12-04T14:07:15+01:00</time>
      </trkpt>
      <trkpt lat="43.72462" lon="4.78608">
        <ele>88</ele>
        <time>2021-12-04T14:07:34+01:00</time>
      </trkpt>
      <trkpt lat="43.72451" lon="4.78636">
        <ele>91</ele>
        <time>2021-12-04T14:07:56+01:00</time>
      </trkpt>
      <trkpt lat="43.72429" lon="4.78647">
        <ele>86</ele>
        <time>2021-12-04T14:08:13+01:00</time>
      </trkpt>
      <trkpt lat="43.72415" lon="4.78674">
        <ele>86</ele>
        <time>2021-12-04T14:08:35+01:00</time>
      </trkpt>
      <trkpt lat="43.72414" lon="4.78706">
        <ele>86</ele>
        <time>2021-12-04T14:08:58+01:00</time>
      </trkpt>
      <trkpt lat="43.7241" lon="4.78736">
        <ele>85</ele>
        <time>2021-12-04T14:09:16+01:00</time>
      </trkpt>
      <trkpt lat="43.72407" lon="4.78767">
        <ele>86</ele>
        <time>2021-12-04T14:09:36+01:00</time>
      </trkpt>
      <trkpt lat="43.72401" lon="4.78798">
        <ele>84</ele>
        <time>2021-12-04T14:09:57+01:00</time>
      </trkpt>
      <trkpt lat="43.72394" lon="4.78829">
        <ele>83</ele>
        <time>2021-12-04T14:10:17+01:00</time>
      </trkpt>
      <trkpt lat="43.72389" lon="4.7886">
        <ele>87</ele>
        <time>2021-12-04T14:10:37+01:00</time>
      </trkpt>
      <trkpt lat="43.72387" lon="4.78891">
        <ele>88</ele>
        <time>2021-12-04T14:10:56+01:00</time>
      </trkpt>
      <trkpt lat="43.72384" lon="4.78922">
        <ele>84</ele>
        <time>2021-12-04T14:11:15+01:00</time>
      </trkpt>
      <trkpt lat="43.72383" lon="4.78954">
        <ele>80</ele>
        <time>2021-12-04T14:11:35+01:00</time>
      </trkpt>
      <trkpt lat="43.72381" lon="4.78986">
        <ele>82</ele>
        <time>2021-12-04T14:11:56+01:00</time>
      </trkpt>
      <trkpt lat="43.72374" lon="4.79017">
        <ele>80</ele>
        <time>2021-12-04T14:12:13+01:00</time>
      </trkpt>
      <trkpt lat="43.72361" lon="4.79042">
        <ele>80</ele>
        <time>2021-12-04T14:12:31+01:00</time>
      </trkpt>
      <trkpt lat="43.72355" lon="4.79073">
        <ele>79</ele>
        <time>2021-12-04T14:12:51+01:00</time>
      </trkpt>
      <trkpt lat="43.72357" lon="4.79106">
        <ele>78</ele>
        <time>2021-12-04T14:13:10+01:00</time>
      </trkpt>
      <trkpt lat="43.72347" lon="4.79134">
        <ele>81</ele>
        <time>2021-12-04T14:13:32+01:00</time>
      </trkpt>
      <trkpt lat="43.72348" lon="4.79166">
        <ele>80</ele>
        <time>2021-12-04T14:13:53+01:00</time>
      </trkpt>
      <trkpt lat="43.72347" lon="4.79198">
        <ele>77</ele>
        <time>2021-12-04T14:14:15+01:00</time>
      </trkpt>
      <trkpt lat="43.72347" lon="4.7923">
        <ele>74</ele>
        <time>2021-12-04T14:14:36+01:00</time>
      </trkpt>
      <trkpt lat="43.72348" lon="4.79262">
        <ele>75</ele>
        <time>2021-12-04T14:14:58+01:00</time>
      </trkpt>
      <trkpt lat="43.72348" lon="4.79293">
        <ele>74</ele>
        <time>2021-12-04T14:15:18+01:00</time>
      </trkpt>
      <trkpt lat="43.72347" lon="4.79325">
        <ele>78</ele>
        <time>2021-12-04T14:15:38+01:00</time>
      </trkpt>
      <trkpt lat="43.72349" lon="4.79356">
        <ele>79</ele>
        <time>2021-12-04T14:15:57+01:00</time>
      </trkpt>
      <trkpt lat="43.72348" lon="4.79387">
        <ele>75</ele>
        <time>2021-12-04T14:16:18+01:00</time>
      </trkpt>
      <trkpt lat="43.72349" lon="4.79419">
        <ele>78</ele>
        <time>2021-12-04T14:16:37+01:00</time>
      </trkpt>
      <trkpt lat="43.72348" lon="4.79451">
        <ele>79</ele>
        <time>2021-12-04T14:16:57+01:00</time>
      </trkpt>
      <trkpt lat="43.72345" lon="4.79482">
        <ele>77</ele>
        <time>2021-12-04T14:17:17+01:00</time>
      </trkpt>
      <trkpt lat="43.72349" lon="4.79514">
        <ele>82</ele>
        <time>2021-12-04T14:17:43+01:00</time>
      </trkpt>
      <trkpt lat="43.72346" lon="4.79545">
        <ele>78</ele>
        <time>2021-12-04T14:18:04+01:00</time>
      </trkpt>
      <trkpt lat="43.72344" lon="4.79577">
        <ele>81</ele>
        <time>2021-12-04T14:18:25+01:00</time>
      </trkpt>
      <trkpt lat="43.7234" lon="4.79608">
        <ele>83</ele>
        <time>2021-12-04T14:18:47+01:00</time>
      </trkpt>
      <trkpt lat="43.72339" lon="4.7964">
        <ele>89</ele>
        <time>2021-12-04T14:19:08+01:00</time>
      </trkpt>
      <trkpt lat="43.72335" lon="4.79672">
        <ele>83</ele>
        <time>2021-12-04T14:19:46+01:00</time>
      </trkpt>
      <trkpt lat="43.72329" lon="4.79702">
        <ele>85</ele>
        <time>2021-12-04T14:20:11+01:00</time>
      </trkpt>
      <trkpt lat="43.72324" lon="4.79733">
        <ele>87</ele>
        <time>2021-12-04T14:20:35+01:00</time>
      </trkpt>
      <trkpt lat="43.72322" lon="4.79765">
        <ele>84</ele>
        <time>2021-12-04T14:20:58+01:00</time>
      </trkpt>
      <trkpt lat="43.72315" lon="4.79795">
        <ele>83</ele>
        <time>2021-12-04T14:21:20+01:00</time>
      </trkpt>
      <trkpt lat="43.72318" lon="4.79827">
        <ele>85</ele>
        <time>2021-12-04T14:21:45+01:00</time>
      </trkpt>
      <trkpt lat="43.72317" lon="4.79859">
        <ele>90</ele>
        <time>2021-12-04T14:22:09+01:00</time>
      </trkpt>
      <trkpt lat="43.7231" lon="4.79889">
        <ele>88</ele>
        <time>2021-12-04T14:22:35+01:00</time>
      </trkpt>
      <trkpt lat="43.72313" lon="4.7992">
        <ele>82</ele>
        <time>2021-12-04T14:22:55+01:00</time>
      </trkpt>
      <trkpt lat="43.72315" lon="4.79952">
        <ele>79</ele>
        <time>2021-12-04T14:23:19+01:00</time>
      </trkpt>
      <trkpt lat="43.72318" lon="4.79984">
        <ele>80</ele>
        <time>2021-12-04T14:23:42+01:00</time>
      </trkpt>
      <trkpt lat="43.72318" lon="4.80016">
        <ele>85</ele>
        <time>2021-12-04T14:24:03+01:00</time>
      </trkpt>
      <trkpt lat="43.7232" lon="4.80048">
        <ele>85</ele>
        <time>2021-12-04T14:24:23+01:00</time>
      </trkpt>
      <trkpt lat="43.72329" lon="4.80078">
        <ele>82</ele>
        <time>2021-12-04T14:24:48+01:00</time>
      </trkpt>
      <trkpt lat="43.72324" lon="4.80108">
        <ele>83</ele>
        <time>2021-12-04T14:25:07+01:00</time>
      </trkpt>
      <trkpt lat="43.72325" lon="4.80141">
        <ele>84</ele>
        <time>2021-12-04T14:25:29+01:00</time>
      </trkpt>
      <trkpt lat="43.72324" lon="4.80172">
        <ele>82</ele>
        <time>2021-12-04T14:25:49+01:00</time>
      </trkpt>
      <trkpt lat="43.72323" lon="4.80205">
        <ele>83</ele>
        <time>2021-12-04T14:26:14+01:00</time>
      </trkpt>
      <trkpt lat="43.72317" lon="4.80236">
        <ele>84</ele>
        <time>2021-12-04T14:26:34+01:00</time>
      </trkpt>
      <trkpt lat="43.72315" lon="4.80267">
        <ele>83</ele>
        <time>2021-12-04T14:26:54+01:00</time>
      </trkpt>
      <trkpt lat="43.72308" lon="4.80298">
        <ele>80</ele>
        <time>2021-12-04T14:27:17+01:00</time>
      </trkpt>
      <trkpt lat="43.72298" lon="4.80327">
        <ele>86</ele>
        <time>2021-12-04T14:27:37+01:00</time>
      </trkpt>
      <trkpt lat="43.72294" lon="4.80358">
        <ele>88</ele>
        <time>2021-12-04T14:27:59+01:00</time>
      </trkpt>
      <trkpt lat="43.72288" lon="4.80389">
        <ele>88</ele>
        <time>2021-12-04T14:28:21+01:00</time>
      </trkpt>
      <trkpt lat="43.72283" lon="4.80419">
        <ele>83</ele>
        <time>2021-12-04T14:28:44+01:00</time>
      </trkpt>
      <trkpt lat="43.72274" lon="4.80449">
        <ele>82</ele>
        <time>2021-12-04T14:29:08+01:00</time>
      </trkpt>
      <trkpt lat="43.72297" lon="4.8046">
        <ele>88</ele>
        <time>2021-12-04T14:30:04+01:00</time>
      </trkpt>
    </trkseg>
  </trk>
</gpx>